createdAt,value
2022-07-28T00:03:00.576Z,22.20
2022-07-28T00:06:03.472Z,22.20
2022-07-28T00:09:06.341Z,22.20
2022-07-28T00:12:09.582Z,22.20
2022-07-28T00:15:14.011Z,22.10
2022-07-28T00:18:16.933Z,22.00
2022-07-28T00:21:19.804Z,22.00
2022-07-28T00:24:23.469Z,22.00
2022-07-28T00:27:26.358Z,22.00
2022-07-28T00:30:30.661Z,21.90
2022-07-28T00:33:33.610Z,21.90
2022-07-28T00:36:36.471Z,21.90
2022-07-28T00:39:41.624Z,21.90
2022-07-28T00:42:44.488Z,21.80
2022-07-28T00:45:48.678Z,21.70
2022-07-28T00:48:53.364Z,21.70
2022-07-28T00:51:56.674Z,21.70
2022-07-28T00:54:59.885Z,21.70
2022-07-28T00:58:02.757Z,21.70
2022-07-28T01:01:08.105Z,21.60
2022-07-28T01:04:11.278Z,21.50
2022-07-28T01:07:24.432Z,21.60
2022-07-28T01:10:37.247Z,21.60
2022-07-28T01:13:47.822Z,21.60
2022-07-28T01:16:57.622Z,21.50
2022-07-28T01:20:07.561Z,21.50
2022-07-28T01:23:28.888Z,21.50
2022-07-28T01:26:54.465Z,21.50
2022-07-28T01:30:08.194Z,21.50
2022-07-28T01:33:17.477Z,21.50
2022-07-28T01:36:26.081Z,21.50
2022-07-28T01:39:33.266Z,21.40
2022-07-28T01:42:40.129Z,21.40
2022-07-28T01:45:44.597Z,21.40
2022-07-28T01:48:50.256Z,21.40
2022-07-28T01:51:54.887Z,21.20
2022-07-28T01:54:59.095Z,21.30
2022-07-28T01:58:04.101Z,21.30
2022-07-28T02:01:08.175Z,21.20
2022-07-28T02:04:15.248Z,21.10
2022-07-28T02:07:20.258Z,21.20
2022-07-28T02:10:24.596Z,21.10
2022-07-28T02:13:27.587Z,21.10
2022-07-28T02:16:32.650Z,21.10
2022-07-28T02:19:38.276Z,21.10
2022-07-28T02:22:42.096Z,21.10
2022-07-28T02:25:45.355Z,21.10
2022-07-28T02:28:51.387Z,21.10
2022-07-28T02:32:02.936Z,21.10
2022-07-28T02:35:10.743Z,21.00
2022-07-28T02:38:16.344Z,21.00
2022-07-28T02:41:25.637Z,21.00
2022-07-28T02:44:36.387Z,20.90
2022-07-28T02:47:45.209Z,20.90
2022-07-28T02:50:50.673Z,20.90
2022-07-28T02:53:54.593Z,20.90
2022-07-28T02:56:58.744Z,20.80
2022-07-28T03:00:02.341Z,20.80
2022-07-28T03:03:06.433Z,20.90
2022-07-28T03:06:10.986Z,20.70
2022-07-28T03:09:13.909Z,20.70
2022-07-28T03:12:16.836Z,20.70
2022-07-28T03:15:20.136Z,20.80
2022-07-28T03:18:22.994Z,20.70
2022-07-28T03:21:27.171Z,20.70
2022-07-28T03:24:33.401Z,20.60
2022-07-28T03:27:42.572Z,20.60
2022-07-28T03:30:56.898Z,20.60
2022-07-28T03:34:00.580Z,20.60
2022-07-28T03:37:10.036Z,20.60
2022-07-28T03:40:14.855Z,20.60
2022-07-28T03:43:21.286Z,20.60
2022-07-28T03:46:25.673Z,20.60
2022-07-28T03:49:28.570Z,20.60
2022-07-28T03:52:32.779Z,20.60
2022-07-28T03:55:35.644Z,20.50
2022-07-28T03:58:38.542Z,20.50
2022-07-28T04:01:41.459Z,20.50
2022-07-28T04:04:44.441Z,20.50
2022-07-28T04:07:49.764Z,20.40
2022-07-28T04:10:53.716Z,20.40
2022-07-28T04:13:57.123Z,20.40
2022-07-28T04:17:00.083Z,20.40
2022-07-28T04:20:03.216Z,20.40
2022-07-28T04:23:07.546Z,20.40
2022-07-28T04:26:10.471Z,20.40
2022-07-28T04:29:13.312Z,20.40
2022-07-28T04:32:16.181Z,20.40
2022-07-28T04:35:20.386Z,20.40
2022-07-28T04:38:24.630Z,20.30
2022-07-28T04:41:27.960Z,20.20
2022-07-28T04:44:30.817Z,20.30
2022-07-28T04:47:33.787Z,20.20
2022-07-28T04:50:36.659Z,20.20
2022-07-28T04:53:41.012Z,20.20
2022-07-28T04:56:44.078Z,20.20
2022-07-28T04:59:48.649Z,20.20
2022-07-28T05:02:53.808Z,20.20
2022-07-28T05:05:56.686Z,20.10
2022-07-28T05:09:01.033Z,20.20
2022-07-28T05:12:05.754Z,20.30
2022-07-28T05:15:10.356Z,20.30
2022-07-28T05:18:13.216Z,20.30
2022-07-28T05:21:16.138Z,20.30
2022-07-28T05:24:26.681Z,20.30
2022-07-28T05:27:29.541Z,20.30
2022-07-28T05:30:32.454Z,20.20
2022-07-28T05:33:35.435Z,20.30
2022-07-28T05:36:38.321Z,20.40
2022-07-28T05:39:42.515Z,20.40
2022-07-28T05:42:47.678Z,20.40
2022-07-28T05:45:50.984Z,20.40
2022-07-28T05:48:54.111Z,20.40
2022-07-28T05:51:57.017Z,20.40
2022-07-28T05:55:01.246Z,20.50
2022-07-28T05:58:04.506Z,20.50
2022-07-28T06:01:07.453Z,20.60
2022-07-28T06:04:25.902Z,20.60
2022-07-28T06:07:42.987Z,20.60
2022-07-28T06:11:02.109Z,20.60
2022-07-28T06:14:05.011Z,20.70
2022-07-28T06:17:07.977Z,20.70
2022-07-28T06:20:12.286Z,20.70
2022-07-28T06:23:18.366Z,20.70
2022-07-28T06:26:23.790Z,20.80
2022-07-28T06:29:26.815Z,20.90
2022-07-28T06:32:29.669Z,20.90
2022-07-28T06:35:33.253Z,20.90
2022-07-28T06:38:54.021Z,20.90
2022-07-28T06:41:58.220Z,21.00
2022-07-28T06:45:01.089Z,21.00
2022-07-28T06:48:04.009Z,21.00
2022-07-28T06:51:07.248Z,21.10
2022-07-28T06:54:11.506Z,21.10
2022-07-28T06:57:16.847Z,21.20
2022-07-28T07:00:20.106Z,21.20
2022-07-28T07:03:22.988Z,21.30
2022-07-28T07:06:25.877Z,21.30
2022-07-28T07:09:28.807Z,21.40
2022-07-28T07:12:33.905Z,21.40
2022-07-28T07:15:36.748Z,21.50
2022-07-28T07:18:39.599Z,21.60
2022-07-28T07:21:42.470Z,21.60
2022-07-28T07:24:45.434Z,21.70
2022-07-28T07:27:50.430Z,21.70
2022-07-28T07:30:53.513Z,21.80
2022-07-28T07:33:57.439Z,21.80
2022-07-28T07:37:00.336Z,21.80
2022-07-28T07:40:05.860Z,21.90
2022-07-28T07:43:10.082Z,21.90
2022-07-28T07:46:13.054Z,22.00
2022-07-28T07:49:18.641Z,22.00
2022-07-28T07:52:21.596Z,22.20
2022-07-28T07:55:24.529Z,22.30
2022-07-28T07:58:28.877Z,22.30
2022-07-28T08:01:31.834Z,22.40
2022-07-28T08:04:37.768Z,22.50
2022-07-28T08:07:41.585Z,22.60
2022-07-28T08:10:44.564Z,22.50
2022-07-28T08:13:49.158Z,22.70
2022-07-28T08:16:52.344Z,22.70
2022-07-28T08:19:55.900Z,22.80
2022-07-28T08:22:59.213Z,22.80
2022-07-28T08:26:02.640Z,22.90
2022-07-28T08:29:06.930Z,23.10
2022-07-28T08:32:09.997Z,23.20
2022-07-28T08:35:32.353Z,23.30
2022-07-28T08:38:35.901Z,23.40
2022-07-28T08:41:51.237Z,23.40
2022-07-28T08:45:01.257Z,23.50
2022-07-28T08:48:08.766Z,23.50
2022-07-28T08:51:13.357Z,23.60
2022-07-28T08:54:21.360Z,23.60
2022-07-28T08:57:30.848Z,23.80
2022-07-28T09:00:35.142Z,23.90
2022-07-28T09:03:39.001Z,24.00
2022-07-28T09:06:42.932Z,24.20
2022-07-28T09:09:48.809Z,24.20
2022-07-28T09:12:52.429Z,24.30
2022-07-28T09:15:56.869Z,24.30
2022-07-28T09:18:59.798Z,24.50
2022-07-28T09:22:02.647Z,24.60
2022-07-28T09:25:06.183Z,24.70
2022-07-28T09:28:11.106Z,24.70
2022-07-28T09:31:16.652Z,24.90
2022-07-28T09:34:19.865Z,25.00
2022-07-28T09:37:27.715Z,25.00
2022-07-28T09:40:31.619Z,25.20
2022-07-28T09:43:39.257Z,25.30
2022-07-28T09:46:43.740Z,25.30
2022-07-28T09:49:46.800Z,25.50
2022-07-28T09:52:49.878Z,25.60
2022-07-28T09:55:56.297Z,25.60
2022-07-28T09:59:00.573Z,25.70
2022-07-28T10:02:06.210Z,25.80
2022-07-28T10:05:11.630Z,25.80
2022-07-28T10:08:14.586Z,25.90
2022-07-28T10:11:19.336Z,25.90
2022-07-28T10:14:32.932Z,26.00
2022-07-28T10:17:37.160Z,26.10
2022-07-28T10:20:40.306Z,26.30
2022-07-28T10:23:48.310Z,26.40
2022-07-28T10:26:53.498Z,26.40
2022-07-28T10:29:59.891Z,26.50
2022-07-28T10:33:06.661Z,26.70
2022-07-28T10:36:10.833Z,26.70
2022-07-28T10:39:16.913Z,26.90
2022-07-28T10:42:21.618Z,27.00
2022-07-28T10:45:42.047Z,26.90
2022-07-28T10:48:50.319Z,27.00
2022-07-28T10:52:04.980Z,27.10
2022-07-28T10:55:21.575Z,27.30
2022-07-28T10:58:35.133Z,27.40
2022-07-28T11:01:49.538Z,27.50
2022-07-28T11:05:01.894Z,27.60
2022-07-28T11:08:08.003Z,27.50
2022-07-28T11:11:10.934Z,27.50
2022-07-28T11:14:38.126Z,27.70
2022-07-28T11:17:59.456Z,27.90
2022-07-28T11:21:08.950Z,28.00
2022-07-28T11:24:12.945Z,27.90
2022-07-28T11:27:58.477Z,28.00
2022-07-28T11:31:01.457Z,28.00
2022-07-28T11:34:04.395Z,27.90
2022-07-28T11:37:15.251Z,28.10
2022-07-28T11:40:31.857Z,28.40
2022-07-28T11:43:38.910Z,28.40
2022-07-28T11:46:42.293Z,28.40
2022-07-28T11:49:46.764Z,28.40
2022-07-28T11:52:56.584Z,28.50
2022-07-28T11:56:02.311Z,28.70
2022-07-28T11:59:07.089Z,28.80
2022-07-28T12:02:10.473Z,28.90
2022-07-28T12:05:15.590Z,29.00
2022-07-28T12:08:19.930Z,28.90
2022-07-28T12:11:24.758Z,29.00
2022-07-28T12:14:30.089Z,29.00
2022-07-28T12:17:36.499Z,29.10
2022-07-28T12:20:48.526Z,29.20
2022-07-28T12:23:55.469Z,29.20
2022-07-28T12:26:59.560Z,29.40
2022-07-28T12:30:04.570Z,29.40
2022-07-28T12:33:17.913Z,29.50
2022-07-28T12:36:21.745Z,29.40
2022-07-28T12:39:26.543Z,29.50
2022-07-28T12:42:32.796Z,29.50
2022-07-28T12:45:45.408Z,29.50
2022-07-28T12:48:48.521Z,29.80
2022-07-28T12:51:51.594Z,29.90
2022-07-28T12:54:56.784Z,30.00
2022-07-28T12:58:00.276Z,30.10
2022-07-28T13:01:08.894Z,30.20
2022-07-28T13:04:12.389Z,30.40
2022-07-28T13:07:25.277Z,30.50
2022-07-28T13:10:31.176Z,30.50
2022-07-28T13:13:50.208Z,30.50
2022-07-28T13:16:58.977Z,30.50
2022-07-28T13:20:06.473Z,30.60
2022-07-28T13:23:09.330Z,30.70
2022-07-28T13:26:13.919Z,30.70
2022-07-28T13:29:16.795Z,30.80
2022-07-28T13:32:20.079Z,30.90
2022-07-28T13:35:23.098Z,30.90
2022-07-28T13:38:26.207Z,31.00
2022-07-28T13:41:56.466Z,31.00
2022-07-28T13:44:53.484Z,31.00
2022-07-28T13:47:56.524Z,31.10
2022-07-28T13:51:00.025Z,31.20
2022-07-28T13:54:03.448Z,31.40
2022-07-28T13:57:07.705Z,31.40
2022-07-28T14:00:11.496Z,31.50
2022-07-28T14:03:14.878Z,31.40
2022-07-28T14:06:17.821Z,31.50
2022-07-28T14:09:21.420Z,31.50
2022-07-28T14:12:25.818Z,31.60
2022-07-28T14:15:28.990Z,31.70
2022-07-28T14:18:31.869Z,31.80
2022-07-28T14:21:34.738Z,31.60
2022-07-28T14:24:38.103Z,31.70
2022-07-28T14:27:42.440Z,31.60
2022-07-28T14:30:45.312Z,31.60
2022-07-28T14:33:53.914Z,31.70
2022-07-28T14:36:57.454Z,31.70
2022-07-28T14:40:00.346Z,31.60
2022-07-28T14:43:04.884Z,31.60
2022-07-28T14:46:15.122Z,31.50
2022-07-28T14:49:24.034Z,31.50
2022-07-28T14:52:27.374Z,31.50
2022-07-28T14:55:30.590Z,31.50
2022-07-28T14:58:34.786Z,31.40
2022-07-28T15:01:37.715Z,31.40
2022-07-28T15:04:41.233Z,31.40
2022-07-28T15:07:44.116Z,31.50
2022-07-28T15:10:49.153Z,31.40
2022-07-28T15:13:53.528Z,31.30
2022-07-28T15:16:56.401Z,31.20
2022-07-28T15:19:59.331Z,31.20
2022-07-28T15:23:02.695Z,31.20
2022-07-28T15:26:05.572Z,31.20
2022-07-28T15:29:09.785Z,31.10
2022-07-28T15:32:13.608Z,31.00
2022-07-28T15:35:19.882Z,30.90
2022-07-28T15:38:22.805Z,30.90
2022-07-28T15:41:25.766Z,30.90
2022-07-28T15:44:30.298Z,30.80
2022-07-28T15:47:34.002Z,30.80
2022-07-28T15:50:36.917Z,30.70
2022-07-28T15:53:41.095Z,30.70
2022-07-28T15:56:43.978Z,30.50
2022-07-28T15:59:50.856Z,30.50
2022-07-28T16:02:54.021Z,30.50
2022-07-28T16:05:57.129Z,30.50
2022-07-28T16:08:59.978Z,30.50
2022-07-28T16:12:02.845Z,30.50
2022-07-28T16:15:10.613Z,30.40
2022-07-28T16:18:14.430Z,30.40
2022-07-28T16:21:18.329Z,30.40
2022-07-28T16:24:21.592Z,30.40
2022-07-28T16:27:24.462Z,30.30
2022-07-28T16:30:30.760Z,30.30
2022-07-28T16:33:34.069Z,30.20
2022-07-28T16:36:37.017Z,30.20
2022-07-28T16:39:39.875Z,30.10
2022-07-28T16:42:43.025Z,30.00
2022-07-28T16:45:47.231Z,30.00
2022-07-28T16:48:50.146Z,29.80
2022-07-28T16:51:54.535Z,29.80
2022-07-28T16:54:57.678Z,29.80
2022-07-28T16:58:00.534Z,29.80
2022-07-28T17:01:05.441Z,29.80
2022-07-28T17:04:08.375Z,29.70
2022-07-28T17:07:11.281Z,29.70
2022-07-28T17:10:21.254Z,29.70
2022-07-28T17:13:30.612Z,29.70
2022-07-28T17:16:34.933Z,29.60
2022-07-28T17:19:42.006Z,29.60
2022-07-28T17:22:49.565Z,29.60
2022-07-28T17:29:15.294Z,29.60
2022-07-28T17:32:19.781Z,29.50
2022-07-28T17:35:31.504Z,29.40
2022-07-28T17:38:37.728Z,29.40
2022-07-28T17:41:40.759Z,29.40
2022-07-28T17:44:43.637Z,29.40
2022-07-28T17:47:47.909Z,29.30
2022-07-28T17:50:51.393Z,29.30
2022-07-28T17:53:54.462Z,29.30
2022-07-28T17:56:59.754Z,29.20
2022-07-28T18:00:02.977Z,29.20
2022-07-28T18:03:11.116Z,29.10
2022-07-28T18:06:14.513Z,29.10
2022-07-28T18:09:17.431Z,29.10
2022-07-28T18:12:20.354Z,29.00
2022-07-28T18:15:23.593Z,28.90
2022-07-28T18:18:28.906Z,28.90
2022-07-28T18:21:32.106Z,28.80
2022-07-28T18:24:37.892Z,28.80
2022-07-28T18:27:40.843Z,28.70
2022-07-28T18:30:44.775Z,28.70
2022-07-28T18:33:49.456Z,28.60
2022-07-28T18:36:52.457Z,28.60
2022-07-28T18:39:55.362Z,28.50
2022-07-28T18:42:58.862Z,28.40
2022-07-28T18:46:01.725Z,28.40
2022-07-28T18:49:06.044Z,28.40
2022-07-28T18:52:09.124Z,28.30
2022-07-28T18:55:12.234Z,28.20
2022-07-28T18:58:15.128Z,28.20
2022-07-28T19:01:18.073Z,28.10
2022-07-28T19:04:22.325Z,28.10
2022-07-28T19:07:25.245Z,28.00
2022-07-28T19:10:28.281Z,28.00
2022-07-28T19:13:31.182Z,27.90
2022-07-28T19:16:34.242Z,27.90
2022-07-28T19:19:38.560Z,27.90
2022-07-28T19:22:41.680Z,27.80
2022-07-28T19:25:45.739Z,27.80
2022-07-28T19:28:48.774Z,27.80
2022-07-28T19:31:51.695Z,27.70
2022-07-28T19:34:56.194Z,27.70
2022-07-28T19:38:00.942Z,27.70
2022-07-28T19:41:03.868Z,27.70
2022-07-28T19:44:06.758Z,27.70
2022-07-28T19:47:09.625Z,27.60
2022-07-28T19:50:14.341Z,27.60
2022-07-28T19:53:17.531Z,27.50
2022-07-28T19:56:20.499Z,27.50
2022-07-28T19:59:23.431Z,27.40
2022-07-28T20:02:26.342Z,27.40
2022-07-28T20:05:30.584Z,27.40
2022-07-28T20:08:33.527Z,27.30
2022-07-28T20:11:37.044Z,27.30
2022-07-28T20:14:39.924Z,27.20
2022-07-28T20:17:43.080Z,27.20
2022-07-28T20:20:47.706Z,27.10
2022-07-28T20:23:52.364Z,27.10
2022-07-28T20:26:55.292Z,27.00
2022-07-28T20:29:59.203Z,27.00
2022-07-28T20:33:04.100Z,27.00
2022-07-28T20:36:08.865Z,27.00
2022-07-28T20:39:42.217Z,26.90
2022-07-28T20:42:34.817Z,26.90
2022-07-28T20:45:37.974Z,26.90
2022-07-28T20:48:41.101Z,26.90
2022-07-28T20:51:51.192Z,26.80
2022-07-28T20:54:55.213Z,26.80
2022-07-28T20:57:58.109Z,26.90
2022-07-28T21:01:01.035Z,27.00
2022-07-28T21:04:04.033Z,27.00
2022-07-28T21:07:08.267Z,26.90
2022-07-28T21:10:12.645Z,26.90
2022-07-28T21:13:15.517Z,26.90
2022-07-28T21:16:18.463Z,26.90
2022-07-28T21:19:21.450Z,26.80
2022-07-28T21:22:25.792Z,26.70
2022-07-28T21:25:31.562Z,26.70
2022-07-28T21:28:52.048Z,26.60
2022-07-28T21:32:05.351Z,26.60
2022-07-28T21:35:14.083Z,26.60
2022-07-28T21:38:18.623Z,26.40
2022-07-28T21:41:25.266Z,26.10
2022-07-28T21:44:28.233Z,25.90
2022-07-28T21:47:31.486Z,25.70
2022-07-28T21:50:37.481Z,25.60
2022-07-28T21:53:44.808Z,25.60
2022-07-28T21:56:48.419Z,25.40
2022-07-28T21:59:53.691Z,25.20
2022-07-28T22:02:56.907Z,25.10
2022-07-28T22:06:03.188Z,25.00
2022-07-28T22:09:07.385Z,25.00
2022-07-28T22:12:10.701Z,24.80
2022-07-28T22:15:13.593Z,24.70
2022-07-28T22:18:17.077Z,24.80
2022-07-28T22:21:20.072Z,24.80
2022-07-28T22:24:24.332Z,24.70
2022-07-28T22:27:27.252Z,24.70
2022-07-28T22:30:30.093Z,24.80
2022-07-28T22:33:32.940Z,24.70
2022-07-28T22:36:35.822Z,24.90
2022-07-28T22:39:40.258Z,24.90
2022-07-28T22:42:44.164Z,24.80
2022-07-28T22:45:50.619Z,24.70
2022-07-28T22:48:54.649Z,24.10
2022-07-28T22:51:57.561Z,23.80
2022-07-28T22:55:01.915Z,23.60
2022-07-28T22:58:05.637Z,23.70
2022-07-28T23:01:08.938Z,23.60
2022-07-28T23:04:12.103Z,23.40
2022-07-28T23:07:17.555Z,23.30
2022-07-28T23:10:22.559Z,23.40
2022-07-28T23:13:25.464Z,23.40
2022-07-28T23:16:28.349Z,23.40
2022-07-28T23:19:31.328Z,23.30
2022-07-28T23:22:34.433Z,23.20
2022-07-28T23:25:40.947Z,23.10
2022-07-28T23:28:43.807Z,22.80
2022-07-28T23:31:46.766Z,22.70
2022-07-28T23:34:49.735Z,22.90
2022-07-28T23:37:52.645Z,22.90
2022-07-28T23:40:56.840Z,22.80
2022-07-28T23:43:59.717Z,22.80
2022-07-28T23:47:02.683Z,22.90
2022-07-28T23:50:06.840Z,22.90
2022-07-28T23:53:09.720Z,23.20
2022-07-28T23:56:15.194Z,23.10
2022-07-28T23:59:18.338Z,23.10
